Time;durP1;ratioP1;P1;durP2;ratioP2;P2;SDS_P1;SDS_P2;PMS_P1;PMS_P2;Temp;Humidity;BMP_temperature;BMP_pressure;BME280_temperature;BME280_humidity;BME280_pressure;Samples;Min_cycle;Max_cycle;Signal;HPM_P1;HPM_P2
2022/05/03 00:01:25;;;;;;;10.80;9.80;;;10.70;99.90;;;;;;5034580;28;20252;-78
2022/05/03 00:04:05;;;;;;;10.70;9.63;;;10.60;99.90;;;;;;5033642;28;20221;-77
2022/05/03 00:06:43;;;;;;;11.03;9.93;;;10.60;99.90;;;;;;5055753;28;20211;-78
2022/05/03 00:09:13;;;;;;;11.43;10.33;;;10.60;99.90;;;;;;5052550;28;20224;-78
2022/05/03 00:11:46;;;;;;;11.70;10.60;;;10.60;99.90;;;;;;5052899;28;20205;-78
2022/05/03 00:14:21;;;;;;;13.03;11.60;;;10.60;99.90;;;;;;5056108;28;20207;-78
2022/05/03 00:16:50;;;;;;;11.93;10.73;;;10.60;99.90;;;;;;5052887;28;20299;-78
2022/05/03 00:19:17;;;;;;;11.47;10.37;;;10.50;99.90;;;;;;5057327;28;20225;-78
2022/05/03 00:21:46;;;;;;;11.30;10.30;;;10.40;99.90;;;;;;5056410;28;20632;-78
2022/05/03 00:24:14;;;;;;;10.63;9.73;;;10.40;99.90;;;;;;5037991;28;20203;-78
2022/05/03 00:26:41;;;;;;;12.17;10.97;;;10.40;99.90;;;;;;5056821;28;20234;-78
2022/05/03 00:29:08;;;;;;;12.13;10.93;;;10.40;99.90;;;;;;5037532;28;20215;-78
2022/05/03 00:31:35;;;;;;;11.10;10.10;;;10.40;99.90;;;;;;5056864;28;20218;-77
2022/05/03 00:34:05;;;;;;;11.00;9.13;;;10.30;99.90;;;;;;5053607;28;20199;-79
2022/05/03 00:36:32;;;;;;;10.87;9.87;;;10.20;99.90;;;;;;5039564;28;20261;-78
2022/05/03 00:39:01;;;;;;;12.67;11.43;;;10.20;99.90;;;;;;5057316;28;20722;-78
2022/05/03 00:41:38;;;;;;;13.73;11.60;;;10.10;99.90;;;;;;5057861;28;20630;-78
2022/05/03 00:47:01;;;;;;;14.07;12.67;;;10.10;99.90;;;;;;5053757;28;20561;-78
2022/05/03 00:49:38;;;;;;;11.63;10.50;;;10.00;99.90;;;;;;5039922;28;20219;-78
2022/05/03 00:52:10;;;;;;;13.40;12.20;;;9.90;99.90;;;;;;5053899;28;20195;-78
2022/05/03 00:54:47;;;;;;;14.27;12.87;;;9.90;99.90;;;;;;5049418;28;20629;-78
2022/05/03 00:57:27;;;;;;;13.20;12.00;;;9.90;99.90;;;;;;5058348;28;20567;-78
2022/05/03 01:00:06;;;;;;;12.27;10.07;;;9.80;99.90;;;;;;5037171;28;20204;-78
2022/05/03 01:02:48;;;;;;;12.00;10.80;;;9.80;99.90;;;;;;5038425;28;20241;-78
2022/05/03 01:05:20;;;;;;;12.13;10.93;;;9.80;99.90;;;;;;5035165;28;20199;-77
2022/05/03 01:07:51;;;;;;;11.63;10.43;;;9.70;99.90;;;;;;5031786;28;20287;-78
2022/05/03 01:10:28;;;;;;;11.80;10.70;;;9.70;99.90;;;;;;5056487;28;20210;-78
2022/05/03 01:13:01;;;;;;;13.17;11.90;;;9.70;99.90;;;;;;5044493;28;20767;-78
2022/05/03 01:15:32;;;;;;;13.03;11.80;;;9.60;99.90;;;;;;5035972;28;20660;-78
2022/05/03 01:18:16;;;;;;;12.97;11.67;;;9.60;99.90;;;;;;5033684;28;20227;-78
2022/05/03 01:20:50;;;;;;;12.03;10.90;;;9.60;99.90;;;;;;5052128;28;20226;-78
2022/05/03 01:23:43;;;;;;;12.30;11.10;;;9.60;99.90;;;;;;5039506;28;20225;-78
2022/05/03 01:26:34;;;;;;;12.37;11.17;;;9.50;99.90;;;;;;5039527;28;20639;-78
2022/05/03 01:29:30;;;;;;;12.00;10.23;;;9.50;99.90;;;;;;5051453;28;20223;-78
2022/05/03 01:32:00;;;;;;;12.43;11.27;;;9.40;99.90;;;;;;5047175;28;20195;-78
2022/05/03 01:34:28;;;;;;;11.97;10.87;;;9.40;99.90;;;;;;5055591;28;20195;-78
2022/05/03 01:37:17;;;;;;;12.17;10.97;;;9.40;99.90;;;;;;5030911;28;20290;-78
2022/05/03 01:39:58;;;;;;;12.63;11.53;;;9.30;99.90;;;;;;5023604;28;20209;-78
2022/05/03 01:42:40;;;;;;;12.87;11.67;;;9.30;99.90;;;;;;5033654;28;20209;-78
2022/05/03 01:45:10;;;;;;;11.90;10.80;;;9.30;99.90;;;;;;5030863;28;20214;-78
2022/05/03 01:47:47;;;;;;;13.17;11.77;;;9.20;99.90;;;;;;5022375;28;20225;-78
2022/05/03 01:50:21;;;;;;;12.80;11.60;;;9.10;99.90;;;;;;5055077;28;20699;-78
2022/05/03 01:53:15;;;;;;;12.80;11.50;;;9.10;99.90;;;;;;5059006;28;20203;-78
2022/05/03 01:55:57;;;;;;;12.83;11.53;;;9.00;99.90;;;;;;5044639;28;20235;-78
2022/05/03 01:58:33;;;;;;;13.93;12.53;;;9.00;99.90;;;;;;5054005;28;20235;-78
2022/05/03 02:01:04;;;;;;;13.43;12.13;;;9.00;99.90;;;;;;5032151;28;20301;-78
2022/05/03 02:03:41;;;;;;;13.70;12.40;;;9.00;99.90;;;;;;5034748;28;20220;-78
2022/05/03 02:06:11;;;;;;;13.27;12.07;;;8.90;99.90;;;;;;5034448;28;20297;-78
2022/05/03 02:08:53;;;;;;;14.00;12.70;;;8.90;99.90;;;;;;5052354;28;20253;-78
2022/05/03 02:11:43;;;;;;;13.57;12.27;;;8.80;99.90;;;;;;5029404;28;20199;-78
2022/05/03 02:17:11;;;;;;;13.60;12.30;;;8.70;99.90;;;;;;5055276;28;20278;-78
2022/05/03 02:19:54;;;;;;;12.83;11.47;;;8.60;99.90;;;;;;5038153;28;20206;-77
2022/05/03 02:22:37;;;;;;;13.60;12.20;;;8.60;99.90;;;;;;5034455;28;20206;-78
2022/05/03 02:25:12;;;;;;;12.37;11.17;;;8.50;99.90;;;;;;5051536;28;20229;-77
2022/05/03 02:27:46;;;;;;;14.93;13.47;;;8.50;99.90;;;;;;5035552;28;20233;-78
2022/05/03 02:30:15;;;;;;;13.47;12.23;;;8.50;99.90;;;;;;5049808;28;20216;-77
2022/05/03 02:32:55;;;;;;;14.87;13.37;;;8.50;99.90;;;;;;5045494;28;20199;-79
2022/05/03 02:35:24;;;;;;;15.40;13.77;;;8.40;99.90;;;;;;5052686;28;20264;-78
2022/05/03 02:37:56;;;;;;;14.80;13.33;;;8.30;99.90;;;;;;5032186;28;20314;-78
2022/05/03 02:40:27;;;;;;;14.17;12.77;;;8.30;99.90;;;;;;5029290;28;20199;-78
2022/05/03 02:42:55;;;;;;;14.90;13.33;;;8.30;99.90;;;;;;5029089;28;20215;-82
2022/05/03 02:45:23;;;;;;;15.13;13.60;;;8.20;99.90;;;;;;5054194;28;20203;-81
2022/05/03 02:48:02;;;;;;;13.47;12.17;;;8.30;99.90;;;;;;5048021;28;20226;-79
2022/05/03 02:50:31;;;;;;;15.40;13.77;;;8.20;99.90;;;;;;5048480;28;20570;-79
2022/05/03 02:53:03;;;;;;;14.80;13.40;;;8.20;99.90;;;;;;5051371;28;20286;-80
2022/05/03 02:55:43;;;;;;;14.87;13.47;;;8.20;99.90;;;;;;5037121;28;20209;-80
2022/05/03 02:58:19;;;;;;;15.30;13.80;;;8.20;99.90;;;;;;5028038;28;20230;-81
2022/05/03 03:03:51;;;;;;;13.47;12.27;;;8.10;99.90;;;;;;5023788;28;20209;-79
2022/05/03 03:06:23;;;;;;;13.20;12.00;;;8.10;99.90;;;;;;5028574;28;20194;-79
2022/05/03 03:08:53;;;;;;;13.77;12.03;;;8.10;99.90;;;;;;5026513;28;20706;-79
2022/05/03 03:11:48;;;;;;;14.93;13.43;;;8.10;99.90;;;;;;5051099;28;20209;-80
2022/05/03 03:14:22;;;;;;;14.43;12.93;;;8.10;99.90;;;;;;5028821;28;20189;-84
2022/05/03 03:16:55;;;;;;;13.83;12.53;;;8.10;99.90;;;;;;5051295;28;20207;-84
2022/05/03 03:19:55;;;;;;;14.40;12.90;;;8.00;99.90;;;;;;5033429;28;20233;-84
2022/05/03 03:22:24;;;;;;;13.40;12.10;;;8.00;99.90;;;;;;5048578;28;20750;-81
2022/05/03 03:24:55;;;;;;;14.27;12.87;;;8.00;99.90;;;;;;5049106;28;20299;-79
2022/05/03 03:27:24;;;;;;;13.70;12.30;;;8.00;99.90;;;;;;5041171;28;20194;-79
2022/05/03 03:29:56;;;;;;;15.17;13.67;;;8.10;99.90;;;;;;5040133;28;20260;-78
2022/05/03 03:32:25;;;;;;;13.17;11.77;;;8.10;99.90;;;;;;5041012;28;20239;-82
2022/05/03 03:34:55;;;;;;;14.17;12.80;;;8.10;99.90;;;;;;5019918;28;20198;-80
2022/05/03 03:37:25;;;;;;;13.70;12.40;;;8.10;99.90;;;;;;5037420;28;20209;-79
2022/05/03 03:39:52;;;;;;;11.73;10.63;;;8.10;99.90;;;;;;5021931;28;20222;-81
2022/05/03 03:42:19;;;;;;;12.33;11.20;;;8.10;99.90;;;;;;5049463;28;20320;-79
2022/05/03 03:44:46;;;;;;;15.63;13.97;;;8.10;99.90;;;;;;5035954;28;20701;-79
2022/05/03 03:47:15;;;;;;;14.27;12.87;;;8.00;99.90;;;;;;5052862;28;20201;-81
2022/05/03 03:49:42;;;;;;;14.00;12.70;;;8.10;99.90;;;;;;5052643;28;20216;-80
2022/05/03 03:52:13;;;;;;;14.57;12.37;;;8.00;99.90;;;;;;5052645;28;20232;-77
2022/05/03 03:54:41;;;;;;;15.07;13.67;;;8.00;99.90;;;;;;5036147;28;20237;-79
2022/05/03 03:57:08;;;;;;;14.73;13.23;;;7.90;99.90;;;;;;5052673;28;20209;-79
2022/05/03 03:59:38;;;;;;;15.17;13.57;;;7.90;99.90;;;;;;5050324;28;20250;-79
2022/05/03 04:02:05;;;;;;;14.50;13.10;;;7.90;99.90;;;;;;5052353;28;20206;-80
2022/05/03 04:04:35;;;;;;;15.87;14.27;;;7.90;99.90;;;;;;5052344;28;20262;-79
2022/05/03 04:07:03;;;;;;;15.83;14.23;;;8.00;99.90;;;;;;5052066;28;20297;-80
2022/05/03 04:09:31;;;;;;;16.77;15.00;;;8.00;99.90;;;;;;5052257;28;20658;-76
2022/05/03 04:12:01;;;;;;;16.93;14.23;;;8.00;99.90;;;;;;5051991;28;20202;-81
2022/05/03 04:14:28;;;;;;;16.43;14.83;;;7.90;99.90;;;;;;5052702;28;20286;-80
2022/05/03 04:16:55;;;;;;;15.33;13.77;;;7.90;99.90;;;;;;5035423;28;20202;-79
2022/05/03 04:19:23;;;;;;;14.07;12.63;;;7.90;99.90;;;;;;5052415;28;20220;-78
2022/05/03 04:21:51;;;;;;;18.73;15.77;;;7.90;99.90;;;;;;5035262;28;20730;-80
2022/05/03 04:24:19;;;;;;;17.43;15.60;;;7.90;99.90;;;;;;5053696;28;20719;-79
2022/05/03 04:26:47;;;;;;;17.10;15.30;;;8.00;99.90;;;;;;5040587;28;20193;-79
2022/05/03 04:29:14;;;;;;;16.03;14.33;;;8.00;99.90;;;;;;5057057;28;20325;-80
2022/05/03 04:31:42;;;;;;;15.37;13.73;;;8.00;99.90;;;;;;5039620;28;20206;-78
2022/05/03 04:34:09;;;;;;;15.03;13.53;;;8.10;99.90;;;;;;5035042;28;20202;-81
2022/05/03 04:36:36;;;;;;;15.27;13.67;;;8.20;99.90;;;;;;5031486;28;20206;-78
2022/05/03 04:39:04;;;;;;;13.90;12.50;;;8.40;99.90;;;;;;5055965;28;20312;-81
2022/05/03 04:41:31;;;;;;;13.53;12.13;;;8.50;99.90;;;;;;5020151;28;20298;-82
2022/05/03 04:44:00;;;;;;;13.73;12.33;;;8.60;99.90;;;;;;5021832;28;20220;-79
2022/05/03 04:46:27;;;;;;;14.33;12.93;;;8.70;99.90;;;;;;5055910;28;20200;-79
2022/05/03 04:48:54;;;;;;;13.40;11.63;;;8.80;99.90;;;;;;5056503;28;20239;-78
2022/05/03 04:51:22;;;;;;;12.10;10.90;;;8.90;99.90;;;;;;5038424;28;20261;-78
2022/05/03 04:53:49;;;;;;;13.97;12.57;;;9.00;99.90;;;;;;5033194;28;20226;-79
2022/05/03 04:56:18;;;;;;;12.93;11.47;;;9.10;99.90;;;;;;5048420;28;20199;-79
2022/05/03 04:58:45;;;;;;;13.03;11.63;;;9.20;99.90;;;;;;5038379;28;20219;-79
2022/05/03 05:01:14;;;;;;;12.47;11.27;;;9.30;99.90;;;;;;5056972;28;20203;-79
2022/05/03 05:03:41;;;;;;;12.07;10.87;;;9.40;99.90;;;;;;5056976;28;20207;-79
2022/05/03 05:06:09;;;;;;;12.23;10.63;;;9.50;99.90;;;;;;5031517;28;20206;-79
2022/05/03 05:08:36;;;;;;;12.63;11.43;;;9.90;99.90;;;;;;5035409;28;20313;-78
2022/05/03 05:11:03;;;;;;;12.23;11.03;;;10.30;99.90;;;;;;5056261;28;20202;-80
2022/05/03 05:13:30;;;;;;;11.60;10.50;;;10.70;99.90;;;;;;5056264;28;20286;-79
2022/05/03 05:15:57;;;;;;;15.07;13.77;;;11.10;99.90;;;;;;5033294;28;20295;-79
2022/05/03 05:18:27;;;;;;;11.77;10.57;;;11.60;99.90;;;;;;5036028;28;20224;-80
2022/05/03 05:20:54;;;;;;;14.53;13.23;;;11.90;99.90;;;;;;5033436;28;20560;-80
2022/05/03 05:23:22;;;;;;;13.77;12.43;;;12.20;99.90;;;;;;5030573;28;20196;-80
2022/05/03 05:25:49;;;;;;;14.47;13.27;;;12.50;99.90;;;;;;5030950;28;20276;-79
2022/05/03 05:28:18;;;;;;;11.33;10.23;;;12.80;99.90;;;;;;5055277;28;20305;-78
2022/05/03 05:30:45;;;;;;;13.33;12.07;;;13.10;99.90;;;;;;5055278;28;20288;-79
2022/05/03 05:33:12;;;;;;;13.43;11.57;;;13.40;99.90;;;;;;5044136;28;20267;-79
2022/05/03 05:35:41;;;;;;;10.17;8.97;;;13.60;99.90;;;;;;5050882;28;20699;-79
2022/05/03 05:38:08;;;;;;;11.30;10.20;;;13.80;99.90;;;;;;5050940;28;20234;-79
2022/05/03 05:40:35;;;;;;;9.47;8.23;;;14.20;99.90;;;;;;5029239;28;20286;-79
2022/05/03 05:43:06;;;;;;;12.77;11.70;;;14.50;99.90;;;;;;5054051;28;20227;-78
2022/05/03 05:45:33;;;;;;;13.60;12.50;;;14.80;99.90;;;;;;5032156;28;20250;-80
2022/05/03 05:48:00;;;;;;;11.63;10.63;;;14.90;99.90;;;;;;5054366;28;20307;-79
2022/05/03 05:50:27;;;;;;;12.33;11.23;;;14.80;99.90;;;;;;5035073;28;20229;-79
2022/05/03 05:55:42;;;;;;;11.50;10.60;;;14.40;99.90;;;;;;5053862;28;20750;-79
2022/05/03 05:58:10;;;;;;;12.93;11.90;;;14.20;99.90;;;;;;5028578;28;20360;-78
2022/05/03 06:00:37;;;;;;;11.67;10.57;;;14.00;99.90;;;;;;5038492;28;20652;-79
2022/05/03 06:03:04;;;;;;;12.40;11.40;;;13.90;99.90;;;;;;5053857;28;20297;-79
2022/05/03 06:05:31;;;;;;;9.17;7.67;;;13.90;99.90;;;;;;5034368;28;20233;-79
2022/05/03 06:08:00;;;;;;;9.63;8.70;;;13.80;99.90;;;;;;5031884;28;20254;-79
2022/05/03 06:10:28;;;;;;;9.77;8.77;;;13.70;99.90;;;;;;5045650;28;20207;-79
2022/05/03 06:12:55;;;;;;;10.00;9.10;;;13.60;99.90;;;;;;5036497;28;20199;-79
2022/05/03 06:15:22;;;;;;;10.20;9.10;;;13.60;99.90;;;;;;5053556;28;20222;-79
2022/05/03 06:17:49;;;;;;;9.97;8.97;;;13.60;99.90;;;;;;5053352;28;20666;-78
2022/05/03 06:20:16;;;;;;;13.97;12.87;;;13.50;99.90;;;;;;5053717;28;20195;-78
2022/05/03 06:22:43;;;;;;;10.47;9.47;;;13.70;99.90;;;;;;5032798;28;20259;-78
2022/05/03 06:25:12;;;;;;;13.73;12.63;;;14.00;99.90;;;;;;5049915;28;20779;-78
2022/05/03 06:27:39;;;;;;;11.87;9.37;;;14.10;99.90;;;;;;5045598;28;20223;-77
2022/05/03 06:30:07;;;;;;;9.73;8.73;;;14.20;99.90;;;;;;5028563;28;20195;-80
2022/05/03 06:32:35;;;;;;;14.07;12.87;;;14.30;99.90;;;;;;5053265;28;20617;-78
2022/05/03 06:35:02;;;;;;;14.37;13.17;;;14.40;99.90;;;;;;5029345;28;20213;-77
2022/05/03 06:37:29;;;;;;;10.80;8.97;;;14.50;99.90;;;;;;5032516;28;20236;-77
2022/05/03 06:39:56;;;;;;;13.50;12.30;;;14.80;99.90;;;;;;5028433;28;20318;-79
2022/05/03 06:42:24;;;;;;;15.13;13.83;;;15.00;99.90;;;;;;5050612;28;20202;-80
2022/05/03 06:44:51;;;;;;;11.33;10.33;;;15.20;99.90;;;;;;5053826;28;20215;-79
2022/05/03 06:47:18;;;;;;;13.60;12.50;;;15.50;99.90;;;;;;5044324;28;20728;-81
2022/05/03 06:49:45;;;;;;;13.60;12.40;;;16.00;99.90;;;;;;5036405;28;20199;-80
2022/05/03 06:52:12;;;;;;;13.17;12.03;;;16.30;99.90;;;;;;5052902;28;20681;-80
2022/05/03 06:54:39;;;;;;;13.03;11.87;;;16.60;99.90;;;;;;5028722;28;20237;-80
2022/05/03 06:57:06;;;;;;;9.83;8.83;;;16.90;99.90;;;;;;5053194;28;20227;-78
2022/05/03 06:59:34;;;;;;;13.33;12.33;;;16.90;99.90;;;;;;5032980;28;20222;-80
2022/05/03 07:02:01;;;;;;;11.67;10.57;;;17.30;99.90;;;;;;5047993;28;20207;-79
2022/05/03 07:04:28;;;;;;;11.90;10.80;;;17.50;99.90;;;;;;5044977;28;20216;-80
2022/05/03 07:06:55;;;;;;;13.30;12.20;;;17.50;99.90;;;;;;5044819;28;20222;-80
2022/05/03 07:09:22;;;;;;;11.30;9.13;;;17.30;99.90;;;;;;5044241;28;20544;-80
2022/05/03 07:11:49;;;;;;;12.40;11.40;;;17.20;99.90;;;;;;5052535;28;20204;-80
2022/05/03 07:14:16;;;;;;;14.50;13.30;;;17.50;99.90;;;;;;5052757;28;20203;-80
2022/05/03 07:16:44;;;;;;;9.03;7.47;;;17.50;99.90;;;;;;5031454;28;20204;-79
2022/05/03 07:24:54;;;;;;;9.53;8.60;;;17.80;99.90;;;;;;4992057;28;20742;-79
2022/05/03 07:27:21;;;;;;;9.00;8.13;;;18.20;99.90;;;;;;4958311;28;20203;-80
2022/05/03 07:29:48;;;;;;;10.23;8.80;;;18.60;99.90;;;;;;4998994;28;20561;-80
2022/05/03 07:32:16;;;;;;;12.40;11.30;;;19.20;99.90;;;;;;5029944;28;20206;-81
2022/05/03 07:34:43;;;;;;;9.37;8.43;;;19.40;99.90;;;;;;5028462;28;20206;-80
2022/05/03 07:37:10;;;;;;;11.50;10.47;;;19.40;99.90;;;;;;5048406;28;20293;-80
2022/05/03 07:39:37;;;;;;;12.50;11.50;;;19.80;99.90;;;;;;5027254;28;20202;-80
2022/05/03 07:42:06;;;;;;;12.77;11.67;;;20.30;99.90;;;;;;5032207;28;20681;-79
2022/05/03 07:44:33;;;;;;;10.77;9.97;;;20.80;99.90;;;;;;5027711;28;20199;-80
2022/05/03 07:47:00;;;;;;;10.17;9.37;;;21.20;99.90;;;;;;5028966;28;20210;-79
2022/05/03 07:49:28;;;;;;;9.93;8.27;;;21.30;99.90;;;;;;5029236;28;20226;-80
2022/05/03 07:51:55;;;;;;;10.67;9.87;;;20.90;99.90;;;;;;5029768;28;20599;-80
2022/05/03 07:54:22;;;;;;;12.17;10.97;;;21.10;99.90;;;;;;5051821;28;20278;-79
2022/05/03 07:56:49;;;;;;;12.77;11.57;;;21.30;99.90;;;;;;5026974;28;20203;-80
2022/05/03 07:59:16;;;;;;;11.00;10.10;;;21.60;99.90;;;;;;5102242;22;20240;-81
2022/05/03 08:01:43;;;;;;;6.80;6.13;;;21.70;99.90;;;;;;5089035;28;20658;-81
2022/05/03 08:04:11;;;;;;;8.10;7.30;;;22.10;99.90;;;;;;5071245;28;20237;-81
2022/05/03 08:06:40;;;;;;;9.00;8.10;;;22.30;99.90;;;;;;5091551;28;20266;-81
2022/05/03 08:09:07;;;;;;;10.30;9.47;;;21.70;99.90;;;;;;5067866;28;20590;-81
2022/05/03 08:11:34;;;;;;;10.93;10.03;;;21.80;99.90;;;;;;5054701;28;20202;-81
2022/05/03 08:14:01;;;;;;;12.57;11.57;;;21.90;99.90;;;;;;5050794;28;20659;-81
2022/05/03 08:16:30;;;;;;;13.67;12.40;;;22.10;99.90;;;;;;5051968;28;20222;-80
2022/05/03 08:18:57;;;;;;;11.17;10.27;;;21.70;99.90;;;;;;5056996;28;20722;-80
2022/05/03 08:21:24;;;;;;;12.63;11.73;;;21.60;99.90;;;;;;5047894;28;20207;-81
2022/05/03 08:23:53;;;;;;;12.87;11.77;;;21.90;99.90;;;;;;5063807;28;20207;-81
2022/05/03 08:26:20;;;;;;;11.70;10.80;;;22.40;99.90;;;;;;5048031;28;20762;-81
2022/05/03 08:28:47;;;;;;;11.50;10.50;;;22.30;99.90;;;;;;5054501;28;20226;-80
2022/05/03 08:31:14;;;;;;;11.17;10.37;;;22.80;99.90;;;;;;5057357;28;20198;-80
2022/05/03 08:33:40;;;;;;;11.27;10.47;;;23.10;99.90;;;;;;5059321;28;20298;-80
2022/05/03 08:36:07;;;;;;;12.63;11.60;;;23.30;99.90;;;;;;5060630;28;20201;-80
2022/05/03 08:44:05;;;;;;;10.87;10.00;;;23.10;99.90;;;;;;5056249;28;20209;-80
2022/05/03 08:46:33;;;;;;;10.10;9.30;;;23.00;99.90;;;;;;5053133;28;20333;-80
2022/05/03 08:49:02;;;;;;;10.23;9.53;;;22.70;99.90;;;;;;5050736;28;20218;-81
2022/05/03 08:51:31;;;;;;;10.43;9.73;;;22.80;99.90;;;;;;5050884;28;20203;-81
2022/05/03 08:53:59;;;;;;;10.37;9.67;;;22.70;99.90;;;;;;5057325;28;20274;-81
2022/05/03 08:56:28;;;;;;;10.50;9.70;;;22.90;99.90;;;;;;5061762;28;20198;-81
2022/05/03 08:58:55;;;;;;;10.57;9.77;;;22.60;99.90;;;;;;5059024;28;20235;-81
2022/05/03 09:01:24;;;;;;;8.87;8.17;;;22.80;99.90;;;;;;5055395;28;20583;-81
2022/05/03 09:03:51;;;;;;;9.90;9.13;;;22.90;99.90;;;;;;5066167;28;20234;-81
2022/05/03 09:06:19;;;;;;;9.10;8.40;;;22.70;99.90;;;;;;5057932;28;20295;-81
2022/05/03 09:08:51;;;;;;;9.73;8.93;;;22.90;99.90;;;;;;5050330;28;20324;-81
2022/05/03 09:11:19;;;;;;;9.20;8.40;;;23.10;99.90;;;;;;5051294;28;20227;-81
2022/05/03 09:13:48;;;;;;;8.77;8.17;;;23.10;99.90;;;;;;5059561;28;20370;-81
2022/05/03 09:16:16;;;;;;;8.20;7.70;;;22.70;99.90;;;;;;5063000;28;20222;-80
2022/05/03 09:18:44;;;;;;;8.80;8.00;;;23.10;99.90;;;;;;5066975;28;20715;-81
2022/05/03 09:24:07;;;;;;;8.77;8.00;;;23.80;99.90;;;;;;5057466;28;20198;-81
2022/05/03 09:26:35;;;;;;;8.63;8.03;;;23.80;99.90;;;;;;5052944;28;20305;-81
2022/05/03 09:29:06;;;;;;;8.27;7.67;;;23.80;99.90;;;;;;5049366;28;20225;-81
2022/05/03 09:31:35;;;;;;;8.13;7.53;;;23.70;99.90;;;;;;5048832;28;20272;-81
2022/05/03 09:34:04;;;;;;;7.60;7.10;;;23.60;99.90;;;;;;5055020;28;20199;-80
2022/05/03 09:36:43;;;;;;;6.90;6.40;;;23.70;99.90;;;;;;5060584;28;20223;-80
2022/05/03 09:39:20;;;;;;;7.10;6.60;;;23.70;99.90;;;;;;5060176;28;20221;-80
2022/05/03 09:42:03;;;;;;;6.60;6.00;;;24.00;99.90;;;;;;5057276;28;20236;-81
2022/05/03 09:44:36;;;;;;;6.87;6.37;;;23.80;99.20;;;;;;5055268;28;20629;-80
2022/05/03 09:47:07;;;;;;;7.00;6.50;;;24.00;99.90;;;;;;5056973;28;20214;-81
2022/05/03 09:49:36;;;;;;;7.60;7.00;;;24.00;98.40;;;;;;5056633;28;20274;-81
2022/05/03 09:52:04;;;;;;;7.50;6.90;;;23.80;98.80;;;;;;5056615;28;20309;-80
2022/05/03 09:54:46;;;;;;;6.90;6.40;;;23.70;98.30;;;;;;5060185;28;20300;-80
2022/05/03 09:57:19;;;;;;;7.83;7.07;;;23.70;99.10;;;;;;5053711;28;20685;-80
2022/05/03 09:59:48;;;;;;;8.67;7.80;;;23.50;98.10;;;;;;5057297;28;20235;-80
2022/05/03 10:02:18;;;;;;;8.17;7.57;;;23.10;98.10;;;;;;5061217;28;20217;-80
2022/05/03 10:04:45;;;;;;;7.87;7.37;;;23.30;98.70;;;;;;5049121;28;20247;-80
2022/05/03 10:07:12;;;;;;;7.60;7.00;;;23.40;99.20;;;;;;5056910;28;20281;-81
2022/05/03 10:09:40;;;;;;;8.40;7.90;;;23.20;98.60;;;;;;5047765;28;20313;-80
2022/05/03 10:12:09;;;;;;;8.33;7.77;;;23.30;98.20;;;;;;5047875;28;20195;-80
2022/05/03 10:14:36;;;;;;;8.37;7.77;;;23.20;98.70;;;;;;5035391;28;20194;-80
2022/05/03 10:22:39;;;;;;;7.83;7.23;;;22.90;98.60;;;;;;5050948;28;20209;-81
2022/05/03 10:25:08;;;;;;;8.27;7.67;;;23.10;98.60;;;;;;5048678;28;20218;-81
2022/05/03 10:27:54;;;;;;;7.47;6.97;;;23.00;98.00;;;;;;5046807;28;20191;-80
2022/05/03 10:30:23;;;;;;;7.57;6.97;;;23.10;98.00;;;;;;5073831;28;20712;-80
2022/05/03 10:33:24;;;;;;;8.33;7.53;;;23.10;98.40;;;;;;5057372;28;20225;-81
2022/05/03 10:35:52;;;;;;;7.70;7.20;;;23.10;96.90;;;;;;5052033;28;20201;-81
2022/05/03 10:38:37;;;;;;;8.37;7.70;;;22.70;99.00;;;;;;5051905;28;20703;-81
2022/05/03 10:41:08;;;;;;;8.30;7.70;;;22.70;98.20;;;;;;5055542;28;20215;-81
2022/05/03 10:43:37;;;;;;;8.20;7.60;;;22.60;98.10;;;;;;5061133;28;20199;-81
2022/05/03 10:46:11;;;;;;;7.70;6.80;;;22.50;99.60;;;;;;5056047;28;20313;-80
2022/05/03 10:48:41;;;;;;;7.97;7.47;;;22.40;98.20;;;;;;5052504;28;20595;-81
2022/05/03 10:51:11;;;;;;;5.80;5.40;;;22.10;99.10;;;;;;5048866;28;20280;-80
2022/05/03 10:53:40;;;;;;;6.80;6.20;;;21.80;99.40;;;;;;5064308;28;20194;-80
2022/05/03 10:56:10;;;;;;;8.40;7.80;;;22.00;99.90;;;;;;5053042;28;20187;-80
2022/05/03 10:58:39;;;;;;;8.93;8.23;;;22.00;99.10;;;;;;5059905;28;20288;-80
2022/05/03 11:01:08;;;;;;;8.70;8.03;;;22.00;99.70;;;;;;5059116;28;20224;-80
2022/05/03 11:03:37;;;;;;;8.43;7.83;;;22.30;99.90;;;;;;5053774;28;20269;-81
2022/05/03 11:06:37;;;;;;;8.20;7.60;;;22.30;99.40;;;;;;5057597;28;20222;-81
2022/05/03 11:09:15;;;;;;;8.37;7.67;;;22.30;99.70;;;;;;5044393;28;20290;-81
2022/05/03 11:11:53;;;;;;;8.33;7.73;;;22.10;99.70;;;;;;5044768;28;20195;-80
2022/05/03 11:14:45;;;;;;;9.10;8.40;;;21.90;99.90;;;;;;5053830;28;20194;-80
2022/05/03 11:17:12;;;;;;;8.73;8.10;;;21.40;98.70;;;;;;5055706;28;20195;-80
2022/05/03 11:19:47;;;;;;;8.93;8.17;;;21.00;99.50;;;;;;5072717;28;20225;-80
2022/05/03 11:22:17;;;;;;;8.80;8.20;;;20.80;99.90;;;;;;5072274;28;20197;-81
2022/05/03 11:24:45;;;;;;;7.33;6.73;;;20.90;99.90;;;;;;5055188;28;20190;-81
2022/05/03 11:27:14;;;;;;;8.43;7.83;;;20.70;99.90;;;;;;5055464;28;20214;-80
2022/05/03 11:29:44;;;;;;;4.83;4.13;;;20.70;99.90;;;;;;5046616;28;20233;-81
2022/05/03 11:32:11;;;;;;;7.43;4.50;;;20.80;99.90;;;;;;5074089;28;20667;-80
2022/05/03 11:34:39;;;;;;;6.30;4.47;;;20.80;99.90;;;;;;5057877;28;20639;-80
2022/05/03 11:37:07;;;;;;;5.03;4.63;;;20.80;99.90;;;;;;5057759;28;20190;-80
2022/05/03 11:39:37;;;;;;;4.73;4.30;;;21.00;99.90;;;;;;5049367;28;20223;-80
2022/05/03 11:42:06;;;;;;;4.60;4.20;;;21.10;99.90;;;;;;5042437;28;20282;-80
2022/05/03 11:44:34;;;;;;;7.57;4.57;;;21.20;99.90;;;;;;5053709;28;20205;-81
2022/05/03 11:47:04;;;;;;;4.70;4.30;;;20.90;99.90;;;;;;5059828;28;20248;-80
2022/05/03 11:49:32;;;;;;;5.07;4.57;;;20.70;99.90;;;;;;5052609;28;20222;-80
2022/05/03 11:57:36;;;;;;;7.70;7.10;;;20.30;99.90;;;;;;5054666;28;20205;-80
2022/05/03 12:00:06;;;;;;;7.60;7.10;;;20.20;99.90;;;;;;5057056;28;20242;-80
2022/05/03 12:02:36;;;;;;;7.67;6.87;;;20.30;99.90;;;;;;5063469;28;20206;-81
2022/05/03 12:05:18;;;;;;;8.77;7.93;;;20.30;99.90;;;;;;5054917;28;20679;-81
2022/05/03 12:07:47;;;;;;;5.23;4.50;;;20.10;99.90;;;;;;5044381;28;20210;-81
2022/05/03 12:10:21;;;;;;;5.53;4.33;;;20.00;99.90;;;;;;5054249;28;20209;-81
2022/05/03 12:13:03;;;;;;;8.80;8.10;;;20.10;99.90;;;;;;5055473;28;20198;-80
2022/05/03 12:15:30;;;;;;;5.07;4.50;;;20.10;99.90;;;;;;5060255;28;20202;-81
2022/05/03 12:18:01;;;;;;;4.93;4.17;;;20.10;99.90;;;;;;5057204;28;20268;-81
2022/05/03 12:20:40;;;;;;;7.00;6.00;;;20.10;99.90;;;;;;5050560;28;20297;-81
2022/05/03 12:23:17;;;;;;;5.73;5.23;;;20.20;99.90;;;;;;5055137;28;20202;-80
2022/05/03 12:25:48;;;;;;;5.50;5.00;;;20.30;99.90;;;;;;5051509;28;20282;-80
2022/05/03 12:28:15;;;;;;;5.87;5.37;;;20.50;99.90;;;;;;5061174;28;20699;-80
2022/05/03 12:30:43;;;;;;;5.30;4.30;;;20.60;99.90;;;;;;5045277;28;20533;-80
2022/05/03 12:33:14;;;;;;;5.00;4.50;;;20.50;99.90;;;;;;5048921;28;20199;-80
2022/05/03 12:35:43;;;;;;;5.80;5.30;;;20.50;99.90;;;;;;5046560;28;20198;-81
2022/05/03 12:38:12;;;;;;;4.83;4.37;;;20.40;99.90;;;;;;5060846;28;20747;-80
2022/05/03 12:40:47;;;;;;;4.37;3.90;;;20.40;99.90;;;;;;5052737;28;20630;-81
2022/05/03 12:43:18;;;;;;;4.23;3.83;;;20.40;99.90;;;;;;5052468;28;20206;-80
2022/05/03 12:46:00;;;;;;;4.37;3.97;;;20.40;99.90;;;;;;5060985;28;20237;-81
2022/05/03 12:48:27;;;;;;;3.47;3.17;;;20.50;99.90;;;;;;5056154;28;20574;-81
2022/05/03 12:50:55;;;;;;;6.50;3.63;;;20.60;99.90;;;;;;5049048;28;20685;-81
2022/05/03 12:53:26;;;;;;;4.80;4.50;;;20.50;99.90;;;;;;5067313;28;20198;-80
2022/05/03 12:55:56;;;;;;;7.73;6.70;;;20.50;99.90;;;;;;5045245;28;20215;-81
2022/05/03 12:58:22;;;;;;;6.23;3.47;;;20.50;99.90;;;;;;5059144;28;20230;-80
2022/05/03 13:00:50;;;;;;;5.30;2.93;;;20.50;99.90;;;;;;5056503;28;20198;-80
2022/05/03 13:03:17;;;;;;;3.20;2.90;;;20.60;99.90;;;;;;5052724;28;20289;-80
2022/05/03 13:05:44;;;;;;;3.60;3.10;;;20.60;99.90;;;;;;5049785;28;20750;-80
2022/05/03 13:08:12;;;;;;;5.37;4.07;;;20.50;99.90;;;;;;5064813;28;20219;-80
2022/05/03 13:10:39;;;;;;;3.50;2.80;;;20.60;99.90;;;;;;5053953;28;20298;-81
2022/05/03 13:13:08;;;;;;;3.20;2.80;;;20.60;99.90;;;;;;5056669;28;20698;-80
2022/05/03 13:15:36;;;;;;;4.50;2.50;;;20.40;99.90;;;;;;5052096;28;20205;-81
2022/05/03 13:18:03;;;;;;;3.67;2.60;;;20.30;99.90;;;;;;5048705;28;20225;-80
2022/05/03 13:20:30;;;;;;;5.83;2.93;;;20.10;99.90;;;;;;5048490;28;20294;-80
2022/05/03 13:22:58;;;;;;;6.40;4.90;;;19.80;99.90;;;;;;5055390;28;20203;-80
2022/05/03 13:25:25;;;;;;;3.97;3.13;;;19.40;99.90;;;;;;5059219;28;20210;-80
2022/05/03 13:27:53;;;;;;;5.60;4.13;;;19.10;99.90;;;;;;5056867;28;20309;-80
2022/05/03 13:30:21;;;;;;;5.50;4.47;;;19.10;99.90;;;;;;5053955;28;20286;-80
2022/05/03 13:32:48;;;;;;;7.50;7.00;;;19.20;99.90;;;;;;5054383;28;20210;-81